createdAt,value
2022-08-31T00:00:40.057Z,93812.94
2022-08-31T00:01:55.342Z,93812.94
2022-08-31T00:03:10.794Z,93816.41
2022-08-31T00:04:09.169Z,93797.19
2022-08-31T00:05:06.818Z,93797.56
2022-08-31T00:06:05.104Z,93803.69
2022-08-31T00:07:01.729Z,93801.41
2022-08-31T00:07:58.390Z,93811.00
2022-08-31T00:08:55.234Z,93808.28
2022-08-31T00:09:51.920Z,93802.94
2022-08-31T00:10:49.714Z,93815.66
2022-08-31T00:11:46.418Z,93809.84
2022-08-31T00:12:47.473Z,93812.53
2022-08-31T00:13:44.534Z,93807.94
2022-08-31T00:14:41.257Z,93813.72
2022-08-31T00:15:38.117Z,93815.25
2022-08-31T00:16:37.507Z,93819.13
2022-08-31T00:17:34.231Z,93818.00
2022-08-31T00:18:31.077Z,93815.66
2022-08-31T00:19:27.864Z,93813.75
2022-08-31T00:20:33.664Z,93811.44
2022-08-31T00:21:31.471Z,93814.50
2022-08-31T00:22:28.118Z,93796.03
2022-08-31T00:23:26.217Z,93805.25
2022-08-31T00:24:22.873Z,93816.44
2022-08-31T00:25:20.257Z,93813.75
2022-08-31T00:26:17.212Z,93813.75
2022-08-31T00:27:15.423Z,93818.34
2022-08-31T00:28:13.344Z,93809.84
2022-08-31T00:29:10.563Z,93811.38
2022-08-31T00:30:08.474Z,93812.56
2022-08-31T00:31:05.096Z,93808.31
2022-08-31T00:32:03.020Z,93807.91
2022-08-31T00:33:01.247Z,93808.31
2022-08-31T00:33:57.872Z,93819.50
2022-08-31T00:34:54.992Z,93803.72
2022-08-31T00:35:51.633Z,93811.00
2022-08-31T00:36:48.358Z,93798.34
2022-08-31T00:37:44.954Z,93801.81
2022-08-31T00:38:42.482Z,93778.72
2022-08-31T00:39:39.109Z,93818.41
2022-08-31T00:40:44.330Z,93816.84
2022-08-31T00:41:41.912Z,93814.16
2022-08-31T00:42:38.588Z,93815.31
2022-08-31T00:43:45.949Z,93822.28
2022-08-31T00:44:42.682Z,93806.13
2022-08-31T00:45:39.436Z,93809.19
2022-08-31T00:46:40.314Z,93811.91
2022-08-31T00:47:37.469Z,93787.63
2022-08-31T00:48:37.226Z,93814.22
2022-08-31T00:49:38.700Z,93814.19
2022-08-31T00:50:35.423Z,93814.19
2022-08-31T00:51:36.285Z,93814.59
2022-08-31T00:52:38.105Z,93817.28
2022-08-31T00:53:36.571Z,93819.59
2022-08-31T00:54:41.384Z,93795.28
2022-08-31T00:55:38.173Z,93813.00
2022-08-31T00:56:37.333Z,93812.59
2022-08-31T00:57:39.891Z,93819.88
2022-08-31T00:58:36.757Z,93816.78
2022-08-31T00:59:33.665Z,93815.66
2022-08-31T01:00:31.548Z,93819.88
2022-08-31T01:01:30.454Z,93811.44
2022-08-31T01:02:27.103Z,93819.16
2022-08-31T01:03:26.363Z,93809.91
2022-08-31T01:04:23.183Z,93799.09
2022-08-31T01:05:21.162Z,93816.06
2022-08-31T01:06:18.748Z,93812.97
2022-08-31T01:07:15.649Z,93819.53
2022-08-31T01:08:12.754Z,93813.72
2022-08-31T01:09:10.701Z,93811.44
2022-08-31T01:10:08.988Z,93815.25
2022-08-31T01:11:06.864Z,93811.78
2022-08-31T01:12:07.801Z,93803.66
2022-08-31T01:13:06.030Z,93810.59
2022-08-31T01:14:02.872Z,93805.22
2022-08-31T01:15:02.974Z,93807.94
2022-08-31T01:16:05.666Z,93807.56
2022-08-31T01:17:03.064Z,93811.44
2022-08-31T01:18:02.289Z,93810.66
2022-08-31T01:19:02.590Z,93815.25
2022-08-31T01:20:28.421Z,93814.13
2022-08-31T01:21:49.079Z,93815.31
2022-08-31T01:22:51.849Z,93809.91
2022-08-31T01:23:48.529Z,93811.44
2022-08-31T01:24:48.092Z,93806.81
2022-08-31T01:25:47.349Z,93810.28
2022-08-31T01:26:44.825Z,93812.16
2022-08-31T01:27:52.876Z,93818.72
2022-08-31T01:28:52.502Z,93824.91
2022-08-31T01:29:49.325Z,93824.16
2022-08-31T01:31:21.097Z,93823.00
2022-08-31T01:32:17.889Z,93817.59
2022-08-31T01:33:14.609Z,93824.13
2022-08-31T01:34:11.383Z,93816.00
2022-08-31T01:35:11.616Z,93819.06
2022-08-31T01:36:13.063Z,93815.94
2022-08-31T01:37:12.519Z,93826.72
2022-08-31T01:38:11.020Z,93826.72
2022-08-31T01:39:09.350Z,93824.00
2022-08-31T01:40:07.058Z,93820.91
2022-08-31T01:41:04.929Z,93816.69
2022-08-31T01:42:01.650Z,93822.41
2022-08-31T01:42:58.315Z,93823.94
2022-08-31T01:43:55.343Z,93825.84
2022-08-31T01:44:51.988Z,93820.47
2022-08-31T01:45:49.798Z,93820.53
2022-08-31T01:46:46.589Z,93822.06
2022-08-31T01:47:43.233Z,93816.22
2022-08-31T01:48:43.647Z,93818.59
2022-08-31T01:49:40.320Z,93817.44
2022-08-31T01:50:37.096Z,93819.75
2022-08-31T01:51:34.412Z,93813.59
2022-08-31T01:52:31.020Z,93818.63
2022-08-31T01:53:27.656Z,93818.16
2022-08-31T01:54:27.175Z,93814.28
2022-08-31T01:55:23.826Z,93813.88
2022-08-31T01:56:24.810Z,93825.84
2022-08-31T01:57:26.975Z,93817.34
2022-08-31T01:58:31.101Z,93826.13
2022-08-31T01:59:28.054Z,93821.88
2022-08-31T02:00:24.999Z,93811.56
2022-08-31T02:01:34.051Z,93810.00
2022-08-31T02:02:32.017Z,93813.81
2022-08-31T02:03:28.714Z,93802.56
2022-08-31T02:04:27.302Z,93816.03
2022-08-31T02:05:23.889Z,93811.84
2022-08-31T02:06:20.557Z,93796.06
2022-08-31T02:07:17.256Z,93815.31
2022-08-31T02:08:14.016Z,93809.97
2022-08-31T02:09:11.527Z,93807.00
2022-08-31T02:10:08.987Z,93810.41
2022-08-31T02:11:07.251Z,93813.09
2022-08-31T02:12:04.489Z,93809.31
2022-08-31T02:13:01.486Z,93813.69
2022-08-31T02:13:58.263Z,93801.81
2022-08-31T02:14:54.975Z,93810.59
2022-08-31T02:15:51.714Z,93802.88
2022-08-31T02:16:49.361Z,93807.81
2022-08-31T02:17:46.128Z,93812.38
2022-08-31T02:18:42.890Z,93808.19
2022-08-31T02:19:39.535Z,93805.03
2022-08-31T02:20:37.307Z,93808.50
2022-08-31T02:21:36.802Z,93808.50
2022-08-31T02:22:33.869Z,93796.84
2022-08-31T02:23:30.688Z,93808.38
2022-08-31T02:24:27.330Z,93785.97
2022-08-31T02:25:24.288Z,93796.78
2022-08-31T02:26:21.104Z,93807.97
2022-08-31T02:27:17.840Z,93811.75
2022-08-31T02:28:15.030Z,93806.72
2022-08-31T02:29:11.889Z,93812.88
2022-08-31T02:30:12.253Z,93805.28
2022-08-31T02:31:09.021Z,93807.97
2022-08-31T02:32:06.004Z,93802.94
2022-08-31T02:33:02.683Z,93806.06
2022-08-31T02:33:59.309Z,93810.66
2022-08-31T02:34:55.980Z,93797.91
2022-08-31T02:35:53.592Z,93811.41
2022-08-31T02:36:50.818Z,93812.19
2022-08-31T02:37:48.053Z,93807.19
2022-08-31T02:38:44.890Z,93809.50
2022-08-31T02:39:41.778Z,93809.41
2022-08-31T02:40:41.031Z,93808.56
2022-08-31T02:41:38.018Z,93800.50
2022-08-31T02:42:53.613Z,93807.44
2022-08-31T02:43:50.995Z,93805.50
2022-08-31T02:44:47.679Z,93807.38
2022-08-31T02:45:44.396Z,93813.59
2022-08-31T02:46:47.784Z,93811.38
2022-08-31T02:47:44.631Z,93804.06
2022-08-31T02:48:41.261Z,93797.50
2022-08-31T02:49:37.975Z,93817.59
2022-08-31T02:50:42.157Z,93813.78
2022-08-31T02:51:42.801Z,93814.00
2022-08-31T02:52:39.741Z,93808.94
2022-08-31T02:53:37.902Z,93811.63
2022-08-31T02:54:34.660Z,93808.56
2022-08-31T02:55:31.324Z,93805.47
2022-08-31T02:56:28.007Z,93814.31
2022-08-31T02:57:24.803Z,93816.31
2022-08-31T02:58:24.125Z,93812.09
2022-08-31T02:59:20.952Z,93812.84
2022-08-31T03:00:21.278Z,93809.00
2022-08-31T03:01:18.060Z,93803.56
2022-08-31T03:02:15.437Z,93807.91
2022-08-31T03:03:13.142Z,93806.31
2022-08-31T03:04:09.911Z,93798.56
2022-08-31T03:05:08.166Z,93790.09
2022-08-31T03:06:04.897Z,93796.59
2022-08-31T03:07:02.016Z,93808.25
2022-08-31T03:07:58.667Z,93804.31
2022-08-31T03:08:55.718Z,93803.97
2022-08-31T03:09:52.495Z,93799.75
2022-08-31T03:10:49.553Z,93806.66
2022-08-31T03:11:46.179Z,93798.53
2022-08-31T03:12:43.008Z,93786.16
2022-08-31T03:13:40.846Z,93795.47
2022-08-31T03:14:37.588Z,93800.50
2022-08-31T03:15:34.473Z,93803.53
2022-08-31T03:16:31.353Z,93790.75
2022-08-31T03:17:28.138Z,93799.66
2022-08-31T03:18:25.032Z,93803.09
2022-08-31T03:19:22.217Z,93799.59
2022-08-31T03:20:20.603Z,93793.53
2022-08-31T03:21:17.256Z,93785.78
2022-08-31T03:22:14.805Z,93795.03
2022-08-31T03:23:12.381Z,93798.81
2022-08-31T03:24:09.469Z,93798.53
2022-08-31T03:25:08.712Z,93797.72
2022-08-31T03:26:08.442Z,93799.94
2022-08-31T03:27:05.111Z,93799.25
2022-08-31T03:28:01.889Z,93803.78
2022-08-31T03:28:58.715Z,93801.03
2022-08-31T03:29:55.344Z,93807.00
2022-08-31T03:30:52.878Z,93798.06
2022-08-31T03:31:49.725Z,93800.06
2022-08-31T03:32:48.246Z,93799.31
2022-08-31T03:33:44.883Z,93796.97
2022-08-31T03:34:41.549Z,93801.16
2022-08-31T03:35:38.870Z,93797.34
2022-08-31T03:36:35.535Z,93803.41
2022-08-31T03:37:32.527Z,93787.50
2022-08-31T03:38:29.189Z,93804.19
2022-08-31T03:39:25.902Z,93800.00
2022-08-31T03:40:22.597Z,93795.47
2022-08-31T03:41:23.663Z,93787.34
2022-08-31T03:42:20.556Z,93763.03
2022-08-31T03:43:17.927Z,93773.78
2022-08-31T03:44:14.977Z,93799.28
2022-08-31T03:45:12.211Z,93801.09
2022-08-31T03:46:08.842Z,93806.09
2022-08-31T03:47:09.648Z,93806.03
2022-08-31T03:48:12.792Z,93800.66
2022-08-31T03:49:12.478Z,93810.28
2022-08-31T03:50:11.007Z,93788.63
2022-08-31T03:51:08.081Z,93804.41
2022-08-31T03:52:04.950Z,93809.13
2022-08-31T03:53:04.263Z,93804.19
2022-08-31T03:54:00.940Z,93803.00
2022-08-31T03:54:57.639Z,93801.41
2022-08-31T03:56:01.751Z,93803.25
2022-08-31T03:56:58.555Z,93801.00
2022-08-31T03:57:55.545Z,93800.59
2022-08-31T03:58:52.259Z,93806.31
2022-08-31T03:59:52.991Z,93802.53
2022-08-31T04:00:49.634Z,93799.88
2022-08-31T04:01:46.295Z,93799.88
2022-08-31T04:02:43.959Z,93799.47
2022-08-31T04:03:40.709Z,93804.84
2022-08-31T04:04:37.407Z,93795.69
2022-08-31T04:05:41.907Z,93799.16
2022-08-31T04:06:41.618Z,93799.84
2022-08-31T04:07:42.934Z,93801.84
2022-08-31T04:08:40.811Z,93791.25
2022-08-31T04:09:37.444Z,93799.66
2022-08-31T04:10:34.080Z,93804.97
2022-08-31T04:11:44.677Z,93806.88
2022-08-31T04:12:42.386Z,93807.75
2022-08-31T04:13:40.456Z,93802.59
2022-08-31T04:14:37.418Z,93807.59
2022-08-31T04:15:36.362Z,93804.00
2022-08-31T04:16:36.217Z,93802.75
2022-08-31T04:17:33.517Z,93803.06
2022-08-31T04:18:30.243Z,93798.09
2022-08-31T04:19:27.029Z,93802.69
2022-08-31T04:20:30.002Z,93812.31
2022-08-31T04:21:31.074Z,93803.84
2022-08-31T04:22:27.937Z,93804.66
2022-08-31T04:23:29.345Z,93811.19
2022-08-31T04:24:26.123Z,93805.69
2022-08-31T04:25:22.916Z,93795.28
2022-08-31T04:26:25.706Z,93806.88
2022-08-31T04:27:22.611Z,93795.63
2022-08-31T04:28:19.311Z,93800.28
2022-08-31T04:29:16.033Z,93802.53
2022-08-31T04:30:13.217Z,93803.97
2022-08-31T04:31:10.182Z,93804.38
2022-08-31T04:32:06.963Z,93808.19
2022-08-31T04:33:04.495Z,93802.06
2022-08-31T04:34:01.176Z,93805.91
2022-08-31T04:34:58.132Z,93799.34
2022-08-31T04:35:54.771Z,93803.22
2022-08-31T04:36:51.613Z,93800.94
2022-08-31T04:37:49.042Z,93795.22
2022-08-31T04:38:48.988Z,93799.09
2022-08-31T04:39:50.937Z,93797.59
2022-08-31T04:40:47.960Z,93783.72
2022-08-31T04:41:50.104Z,93774.91
2022-08-31T04:42:48.386Z,93790.34
2022-08-31T04:43:48.207Z,93794.94
2022-08-31T04:44:44.813Z,93792.31
2022-08-31T04:45:45.127Z,93795.34
2022-08-31T04:46:43.026Z,93803.19
2022-08-31T04:47:42.005Z,93799.34
2022-08-31T04:48:40.406Z,93800.16
2022-08-31T04:49:37.030Z,93800.19
2022-08-31T04:50:33.627Z,93805.22
2022-08-31T04:51:33.077Z,93802.91
2022-08-31T04:52:29.762Z,93806.41
2022-08-31T04:53:27.187Z,93807.19
2022-08-31T04:54:23.841Z,93806.41
2022-08-31T04:55:20.497Z,93805.56
2022-08-31T04:56:20.787Z,93809.41
2022-08-31T04:57:17.475Z,93802.47
2022-08-31T04:58:14.223Z,93807.84
2022-08-31T04:59:14.577Z,93804.03
2022-08-31T05:00:11.582Z,93807.44
2022-08-31T05:01:10.393Z,93806.31
2022-08-31T05:02:07.250Z,93814.00
2022-08-31T05:03:04.271Z,93810.94
2022-08-31T05:04:01.589Z,93812.88
2022-08-31T05:04:58.434Z,93801.34
2022-08-31T05:05:55.211Z,93811.84
2022-08-31T05:06:52.034Z,93809.50
2022-08-31T05:07:48.700Z,93807.56
2022-08-31T05:08:45.585Z,93809.53
2022-08-31T05:09:42.664Z,93809.19
2022-08-31T05:10:41.303Z,93809.63
2022-08-31T05:11:38.213Z,93802.72
2022-08-31T05:12:34.900Z,93792.66
2022-08-31T05:13:32.020Z,93793.13
2022-08-31T05:14:28.691Z,93797.00
2022-08-31T05:15:25.382Z,93790.44
2022-08-31T05:16:22.080Z,93792.81
2022-08-31T05:17:18.815Z,93797.38
2022-08-31T05:18:15.471Z,93798.56
2022-08-31T05:19:12.541Z,93795.91
2022-08-31T05:20:09.557Z,93800.09
2022-08-31T05:21:11.873Z,93789.72
2022-08-31T05:22:08.653Z,93792.81
2022-08-31T05:23:05.548Z,93797.84
2022-08-31T05:24:06.583Z,93800.94
2022-08-31T05:25:06.982Z,93798.28
2022-08-31T05:26:05.460Z,93793.31
2022-08-31T05:27:02.756Z,93802.94
2022-08-31T05:27:59.765Z,93783.69
2022-08-31T05:28:58.407Z,93797.97
2022-08-31T05:29:55.094Z,93802.22
2022-08-31T05:30:51.846Z,93793.78
2022-08-31T05:31:52.287Z,93774.16
2022-08-31T05:32:49.536Z,93791.09
2022-08-31T05:33:46.151Z,93786.47
2022-08-31T05:34:42.803Z,93783.78
2022-08-31T05:35:39.941Z,93792.25
2022-08-31T05:36:36.592Z,93790.72
2022-08-31T05:37:33.352Z,93779.94
2022-08-31T05:38:30.525Z,93790.69
2022-08-31T05:39:27.300Z,93793.75
2022-08-31T05:40:23.951Z,93785.28
2022-08-31T05:41:22.271Z,93786.03
2022-08-31T05:42:21.160Z,93791.03
2022-08-31T05:43:18.129Z,93788.69
2022-08-31T05:44:15.657Z,93790.25
2022-08-31T05:45:12.493Z,93787.56
2022-08-31T05:46:13.395Z,93771.38
2022-08-31T05:47:10.166Z,93791.34
2022-08-31T05:48:06.881Z,93792.16
2022-08-31T05:49:06.283Z,93788.31
2022-08-31T05:50:03.413Z,93788.69
2022-08-31T05:51:11.451Z,93791.41
2022-08-31T05:52:09.573Z,93784.84
2022-08-31T05:53:08.074Z,93771.38
2022-08-31T05:54:04.827Z,93785.19
2022-08-31T05:55:01.528Z,93784.78
2022-08-31T05:56:03.871Z,93786.72
2022-08-31T05:57:01.257Z,93789.00
2022-08-31T05:57:58.249Z,93789.78
2022-08-31T05:58:56.216Z,93780.91
2022-08-31T05:59:52.946Z,93785.09
2022-08-31T06:00:49.546Z,93793.88
2022-08-31T06:01:46.406Z,93793.03
2022-08-31T06:02:43.202Z,93788.06
2022-08-31T06:03:39.874Z,93794.19
2022-08-31T06:04:36.478Z,93797.59
2022-08-31T06:05:33.126Z,93790.75
2022-08-31T06:06:30.250Z,93788.81
2022-08-31T06:07:27.060Z,93795.72
2022-08-31T06:08:27.089Z,93797.59
2022-08-31T06:09:24.521Z,93796.34
2022-08-31T06:10:21.278Z,93799.00
2022-08-31T06:11:20.755Z,93798.91
2022-08-31T06:12:20.569Z,93789.25
2022-08-31T06:13:17.700Z,93780.59
2022-08-31T06:14:14.780Z,93782.00
2022-08-31T06:15:12.005Z,93782.81
2022-08-31T06:16:09.926Z,93779.69
2022-08-31T06:17:06.979Z,93793.16
2022-08-31T06:18:05.520Z,93753.72
2022-08-31T06:19:04.736Z,93787.84
2022-08-31T06:20:02.292Z,93774.00
2022-08-31T06:21:09.242Z,93783.56
2022-08-31T06:22:05.910Z,93767.34
2022-08-31T06:23:04.152Z,93779.50
2022-08-31T06:24:03.304Z,93780.91
2022-08-31T06:24:59.952Z,93780.91
2022-08-31T06:26:12.753Z,93775.03
2022-08-31T06:27:10.380Z,93785.88
2022-08-31T06:28:07.466Z,93782.59
2022-08-31T06:29:09.479Z,93775.50
2022-08-31T06:30:07.956Z,93783.00
2022-08-31T06:31:12.095Z,93773.53
2022-08-31T06:32:11.047Z,93779.09
2022-08-31T06:33:07.889Z,93778.22
2022-08-31T06:34:07.188Z,93782.75
2022-08-31T06:35:06.600Z,93777.16
2022-08-31T06:36:03.643Z,93769.03
2022-08-31T06:37:01.378Z,93777.00
2022-08-31T06:37:58.541Z,93775.91
2022-08-31T06:38:56.359Z,93778.03
2022-08-31T06:39:53.873Z,93779.00
2022-08-31T06:40:50.862Z,93769.25
2022-08-31T06:41:48.984Z,93778.41
2022-08-31T06:42:45.716Z,93780.66
2022-08-31T06:43:43.421Z,93777.56
2022-08-31T06:44:40.118Z,93782.34
2022-08-31T06:45:36.848Z,93773.78
2022-08-31T06:46:34.910Z,93785.19
2022-08-31T06:47:31.706Z,93788.66
2022-08-31T06:48:28.538Z,93782.84
2022-08-31T06:49:26.085Z,93782.53
2022-08-31T06:50:22.756Z,93777.72
2022-08-31T06:51:19.423Z,93779.66
2022-08-31T06:52:16.136Z,93767.25
2022-08-31T06:53:12.732Z,93776.63
2022-08-31T06:54:28.551Z,93789.50
2022-08-31T06:55:26.401Z,93786.19
2022-08-31T06:56:25.409Z,93783.63
2022-08-31T06:57:22.759Z,93786.84
2022-08-31T06:58:19.389Z,93782.53
2022-08-31T06:59:15.997Z,93784.78
2022-08-31T07:00:12.713Z,93783.41
2022-08-31T07:01:13.637Z,93787.97
2022-08-31T07:02:12.693Z,93780.81
2022-08-31T07:04:21.316Z,93781.94
2022-08-31T07:05:24.526Z,93771.19
2022-08-31T07:06:24.361Z,93774.06
2022-08-31T07:07:21.036Z,93786.56
2022-08-31T07:08:18.806Z,93776.44
2022-08-31T07:09:17.963Z,93762.03
2022-08-31T07:10:14.739Z,93775.38
2022-08-31T07:11:23.762Z,93777.03
2022-08-31T07:12:22.312Z,93778.50
2022-08-31T07:13:19.092Z,93777.47
2022-08-31T07:14:18.819Z,93778.84
2022-08-31T07:15:15.469Z,93784.81
2022-08-31T07:16:15.375Z,93779.28
2022-08-31T07:17:12.404Z,93785.72
2022-08-31T07:18:10.550Z,93784.34
2022-08-31T07:19:08.039Z,93786.09
2022-08-31T07:20:05.036Z,93784.44
2022-08-31T07:21:25.957Z,93792.69
2022-08-31T07:22:22.608Z,93794.66
2022-08-31T07:23:19.398Z,93788.63
2022-08-31T07:24:18.748Z,93768.91
2022-08-31T07:25:15.624Z,93783.47
2022-08-31T07:26:19.372Z,93796.66
2022-08-31T07:27:18.314Z,93790.09
2022-08-31T07:28:14.981Z,93798.69
2022-08-31T07:29:14.964Z,93797.63
2022-08-31T07:30:12.527Z,93791.25
2022-08-31T07:31:11.361Z,93798.97
2022-08-31T07:32:11.948Z,93793.13
2022-08-31T07:33:09.450Z,93800.50
2022-08-31T07:34:08.223Z,93793.88
2022-08-31T07:35:06.508Z,93796.00
2022-08-31T07:36:03.370Z,93805.44
2022-08-31T07:37:19.641Z,93793.81
2022-08-31T07:38:35.343Z,93798.75
2022-08-31T07:39:51.852Z,93801.94
2022-08-31T07:41:08.133Z,93799.25
2022-08-31T07:42:12.332Z,93800.41
2022-08-31T07:43:08.944Z,93792.50
2022-08-31T07:44:05.648Z,93790.81
2022-08-31T07:45:05.733Z,93797.09
2022-08-31T07:46:06.795Z,93789.75
2022-08-31T07:47:04.685Z,93793.88
2022-08-31T07:48:01.791Z,93795.19
2022-08-31T07:48:59.358Z,93792.28
2022-08-31T07:49:58.519Z,93789.34
2022-08-31T07:50:58.415Z,93792.16
2022-08-31T07:51:57.229Z,93796.56
2022-08-31T07:52:55.716Z,93797.69
2022-08-31T07:53:53.786Z,93794.38
2022-08-31T07:54:52.910Z,93799.19
2022-08-31T07:55:55.575Z,93790.69
2022-08-31T07:56:52.846Z,93792.75
2022-08-31T07:57:51.840Z,93795.44
2022-08-31T07:58:50.133Z,93787.94
2022-08-31T07:59:49.611Z,93785.75
2022-08-31T08:00:47.809Z,93789.16
2022-08-31T08:01:45.217Z,93787.47
2022-08-31T08:02:50.858Z,93790.38
2022-08-31T08:03:53.566Z,93791.34
2022-08-31T08:04:54.016Z,93782.94
2022-08-31T08:05:51.983Z,93789.41
2022-08-31T08:06:49.124Z,93769.63
2022-08-31T08:07:45.740Z,93784.59
2022-08-31T08:09:12.917Z,93783.41
2022-08-31T08:10:14.283Z,93775.78
2022-08-31T08:11:18.736Z,93771.19
2022-08-31T08:12:15.398Z,93777.81
2022-08-31T08:13:13.330Z,93768.91
2022-08-31T08:14:10.273Z,93773.31
2022-08-31T08:15:07.457Z,93776.19
2022-08-31T08:16:06.368Z,93778.13
2022-08-31T08:17:06.561Z,93776.22
2022-08-31T08:18:05.251Z,93774.91
2022-08-31T08:19:01.941Z,93769.28
2022-08-31T08:19:58.595Z,93766.38
2022-08-31T08:20:55.538Z,93773.53
2022-08-31T08:21:52.399Z,93754.97
2022-08-31T08:22:55.377Z,93771.81
2022-08-31T08:23:53.094Z,93770.28
2022-08-31T08:24:50.550Z,93774.38
2022-08-31T08:25:47.828Z,93756.34
2022-08-31T08:26:52.123Z,93776.63
2022-08-31T08:27:54.252Z,93763.78
2022-08-31T08:28:51.329Z,93767.91
2022-08-31T08:29:48.546Z,93765.16
2022-08-31T08:30:46.928Z,93769.34
2022-08-31T08:31:46.285Z,93769.31
2022-08-31T08:32:43.172Z,93770.19
2022-08-31T08:33:39.839Z,93757.38
2022-08-31T08:34:43.491Z,93775.00
2022-08-31T08:35:41.109Z,93769.41
2022-08-31T08:36:40.864Z,93759.53
2022-08-31T08:37:57.816Z,93761.19
2022-08-31T08:38:57.488Z,93761.06
2022-08-31T08:39:55.902Z,93753.94
2022-08-31T08:40:53.340Z,93756.34
2022-08-31T08:41:54.433Z,93756.44
2022-08-31T08:42:51.137Z,93757.78
2022-08-31T08:43:53.155Z,93760.06
2022-08-31T08:44:49.988Z,93758.41
2022-08-31T08:45:50.018Z,93756.13
2022-08-31T08:46:51.406Z,93750.16
2022-08-31T08:47:50.000Z,93757.44
2022-08-31T08:48:55.577Z,93758.88
2022-08-31T08:49:55.016Z,93752.53
2022-08-31T08:50:53.371Z,93755.38
2022-08-31T08:51:54.875Z,93757.75
2022-08-31T08:52:51.741Z,93750.91
2022-08-31T08:53:52.266Z,93756.22
2022-08-31T08:54:51.473Z,93751.22
2022-08-31T08:55:48.283Z,93741.81
2022-08-31T08:56:49.157Z,93740.38
2022-08-31T08:57:47.782Z,93753.66
2022-08-31T08:58:45.327Z,93745.13
2022-08-31T08:59:43.784Z,93743.34
2022-08-31T09:00:46.759Z,93745.69
2022-08-31T09:01:47.296Z,93737.06
2022-08-31T09:02:58.497Z,93737.16
2022-08-31T09:04:10.390Z,93735.13
2022-08-31T09:05:35.513Z,93730.03
2022-08-31T09:06:54.637Z,93726.97
2022-08-31T09:07:54.281Z,93723.25
2022-08-31T09:09:04.070Z,93725.78
2022-08-31T09:10:18.952Z,93724.16
2022-08-31T09:11:38.722Z,93718.44
2022-08-31T09:12:58.725Z,93721.66
2022-08-31T09:14:19.294Z,93709.50
2022-08-31T09:15:51.943Z,93715.25
2022-08-31T09:17:03.703Z,93717.09
2022-08-31T09:18:30.513Z,93711.91
2022-08-31T09:19:27.227Z,93704.00
2022-08-31T09:20:24.220Z,93710.88
2022-08-31T09:21:31.011Z,93714.56
2022-08-31T09:22:29.289Z,93711.38
2022-08-31T09:23:28.162Z,93715.28
2022-08-31T09:24:30.276Z,93714.72
2022-08-31T09:25:36.025Z,93709.50
2022-08-31T09:27:18.550Z,93708.38
2022-08-31T09:28:16.433Z,93715.53
2022-08-31T09:29:29.270Z,93712.63
2022-08-31T09:30:52.360Z,93716.16
2022-08-31T09:32:01.081Z,93707.94
2022-08-31T09:33:02.232Z,93716.13
2022-08-31T09:33:58.970Z,93710.00
2022-08-31T09:35:41.280Z,93709.91
2022-08-31T09:36:40.978Z,93705.38
2022-08-31T09:37:49.029Z,93707.91
2022-08-31T09:38:47.293Z,93700.28
2022-08-31T09:39:47.763Z,93693.88
2022-08-31T09:40:49.805Z,93696.75
2022-08-31T09:41:48.883Z,93700.09
2022-08-31T09:43:01.017Z,93690.56
2022-08-31T09:44:17.971Z,93688.47
2022-08-31T09:45:30.058Z,93688.63
2022-08-31T09:46:30.385Z,93699.41
2022-08-31T09:47:48.948Z,93693.91
2022-08-31T09:48:52.431Z,93688.50
2022-08-31T09:49:56.023Z,93687.75
2022-08-31T09:51:01.203Z,93686.50
2022-08-31T09:52:18.932Z,93686.75
2022-08-31T09:53:34.251Z,93681.31
2022-08-31T09:54:49.693Z,93679.72
2022-08-31T09:55:46.389Z,93683.38
2022-08-31T09:57:10.712Z,93698.25
2022-08-31T09:58:11.193Z,93712.97
2022-08-31T09:59:11.744Z,93699.38
2022-08-31T10:00:15.198Z,93700.22
2022-08-31T10:01:20.292Z,93735.78
2022-08-31T10:02:23.182Z,93740.56
2022-08-31T10:03:24.414Z,93722.66
2022-08-31T10:04:27.828Z,93727.91
2022-08-31T10:05:32.438Z,93736.06
2022-08-31T10:06:46.778Z,93749.22
2022-08-31T10:07:51.447Z,93718.94
2022-08-31T10:08:58.062Z,93703.41
2022-08-31T10:10:03.395Z,93712.44
2022-08-31T10:11:11.417Z,93722.75
2022-08-31T10:12:11.692Z,93722.47
2022-08-31T10:13:24.973Z,93728.94
2022-08-31T10:14:27.682Z,93737.53
2022-08-31T10:15:39.549Z,93741.75
2022-08-31T10:16:46.224Z,93739.41
2022-08-31T10:17:55.663Z,93743.28
2022-08-31T10:19:02.029Z,93748.31
2022-08-31T10:20:09.852Z,93739.06
2022-08-31T10:21:16.201Z,93740.25
2022-08-31T10:22:25.511Z,93741.38
2022-08-31T10:23:34.878Z,93739.03
2022-08-31T10:24:48.298Z,93737.47
2022-08-31T10:26:01.066Z,93729.34
2022-08-31T10:27:14.921Z,93711.25
2022-08-31T10:28:32.128Z,93719.69
2022-08-31T10:29:52.217Z,93713.53
2022-08-31T10:31:02.973Z,93717.72
2022-08-31T10:32:06.045Z,93718.03
2022-08-31T10:33:17.966Z,93714.25
2022-08-31T10:34:41.654Z,93713.44
2022-08-31T10:35:57.911Z,93703.78
2022-08-31T10:37:08.122Z,93708.84
2022-08-31T10:38:24.171Z,93712.72
2022-08-31T10:39:45.404Z,93708.00
2022-08-31T10:40:51.307Z,93713.06
2022-08-31T10:41:49.952Z,93709.22
2022-08-31T10:42:59.357Z,93712.28
2022-08-31T10:44:06.333Z,93715.75
2022-08-31T10:45:19.100Z,93709.25
2022-08-31T10:46:16.665Z,93716.16
2022-08-31T10:47:21.562Z,93711.50
2022-08-31T10:48:29.644Z,93720.78
2022-08-31T10:49:26.629Z,93717.69
2022-08-31T10:50:46.110Z,93682.66
2022-08-31T10:51:55.993Z,93714.19
2022-08-31T10:53:15.998Z,93719.53
2022-08-31T10:54:17.006Z,93714.44
2022-08-31T10:55:58.690Z,93712.09
2022-08-31T10:57:31.571Z,93709.72
2022-08-31T10:58:40.801Z,93692.00
2022-08-31T10:59:54.066Z,93714.69
2022-08-31T11:01:05.988Z,93707.81
2022-08-31T11:02:29.770Z,93716.69
2022-08-31T11:03:35.510Z,93722.47
2022-08-31T11:04:48.928Z,93724.75
2022-08-31T11:05:57.726Z,93710.03
2022-08-31T11:07:26.693Z,93706.59
2022-08-31T11:08:54.153Z,93709.19
2022-08-31T11:10:19.948Z,93702.13
2022-08-31T11:11:25.304Z,93707.63
2022-08-31T11:12:31.989Z,93710.69
2022-08-31T11:13:38.518Z,93696.44
2022-08-31T11:15:11.821Z,93696.31
2022-08-31T11:16:28.039Z,93697.34
2022-08-31T11:17:50.128Z,93696.19
2022-08-31T11:19:10.107Z,93691.34
2022-08-31T11:20:28.744Z,93691.53
2022-08-31T11:21:47.149Z,93678.75
2022-08-31T11:23:05.999Z,93679.09
2022-08-31T11:24:24.139Z,93679.25
2022-08-31T11:25:47.524Z,93675.59
2022-08-31T11:27:14.256Z,93674.84
2022-08-31T11:28:35.882Z,93675.88
2022-08-31T11:29:41.630Z,93669.38
2022-08-31T11:30:50.080Z,93672.72
2022-08-31T11:31:49.956Z,93669.97
2022-08-31T11:32:52.087Z,93672.63
2022-08-31T11:34:15.173Z,93667.47
2022-08-31T11:35:15.686Z,93666.44
2022-08-31T11:36:12.411Z,93658.75
2022-08-31T11:37:09.799Z,93655.53
2022-08-31T11:38:06.533Z,93653.28
2022-08-31T11:39:03.631Z,93658.59
2022-08-31T11:40:00.394Z,93636.97
2022-08-31T11:41:03.905Z,93654.25
2022-08-31T11:42:01.004Z,93624.88
2022-08-31T11:43:01.301Z,93653.28
2022-08-31T11:43:58.205Z,93655.59
2022-08-31T11:45:05.609Z,93651.81
2022-08-31T11:46:34.424Z,93656.03
2022-08-31T11:47:41.567Z,93650.38
2022-08-31T11:48:51.489Z,93644.16
2022-08-31T11:49:54.298Z,93644.09
2022-08-31T11:51:07.384Z,93642.31
2022-08-31T11:52:08.440Z,93647.19
2022-08-31T11:53:33.106Z,93630.75
2022-08-31T11:54:35.723Z,93633.63
2022-08-31T11:55:48.544Z,93631.53
2022-08-31T11:56:47.556Z,93631.69
2022-08-31T11:58:10.111Z,93636.38
2022-08-31T11:59:34.109Z,93629.94
2022-08-31T12:01:03.004Z,93638.38
2022-08-31T12:02:21.190Z,93639.91